createdAt,value
2022-08-25T00:02:40.575Z,86.63
2022-08-25T00:12:50.848Z,86.90
2022-08-25T00:22:58.729Z,87.10
2022-08-25T00:33:06.062Z,86.91
2022-08-25T00:43:13.940Z,87.05
2022-08-25T00:53:21.250Z,86.95
2022-08-25T01:03:35.576Z,86.96
2022-08-25T01:13:44.744Z,87.39
2022-08-25T01:23:52.962Z,87.42
2022-08-25T01:33:58.580Z,87.71
2022-08-25T01:44:07.165Z,87.66
2022-08-25T01:54:24.031Z,88.17
2022-08-25T02:04:31.059Z,87.60
2022-08-25T02:14:39.620Z,87.88
2022-08-25T02:24:49.761Z,87.93
2022-08-25T02:34:57.934Z,87.93
2022-08-25T02:45:06.834Z,88.31
2022-08-25T02:55:17.119Z,88.38
2022-08-25T03:05:23.130Z,88.30
2022-08-25T03:15:30.837Z,88.55
2022-08-25T03:25:57.733Z,88.52
2022-08-25T03:36:10.334Z,88.92
2022-08-25T03:46:23.835Z,88.91
2022-08-25T03:56:31.789Z,89.15
2022-08-25T04:06:39.299Z,89.02
2022-08-25T04:16:47.177Z,89.32
2022-08-25T04:26:55.216Z,89.19
2022-08-25T04:37:00.870Z,89.04
2022-08-25T04:47:06.332Z,89.06
2022-08-25T04:57:14.319Z,89.08
2022-08-25T05:07:21.482Z,88.75
2022-08-25T05:17:29.183Z,89.05
2022-08-25T05:27:36.680Z,88.69
2022-08-25T05:37:44.037Z,87.98
2022-08-25T05:47:50.605Z,87.14
2022-08-25T05:57:59.454Z,86.27
2022-08-25T06:08:04.610Z,85.92
2022-08-25T06:18:11.993Z,86.52
2022-08-25T06:28:18.468Z,86.19
2022-08-25T06:38:26.904Z,86.32
2022-08-25T06:48:34.576Z,85.26
2022-08-25T06:58:40.838Z,84.42
2022-08-25T07:08:48.613Z,83.97
2022-08-25T07:18:55.685Z,84.16
2022-08-25T07:29:03.243Z,83.57
2022-08-25T07:39:10.321Z,82.81
2022-08-25T07:49:17.731Z,81.85
2022-08-25T07:59:29.682Z,80.78
2022-08-25T08:09:37.740Z,81.80
2022-08-25T08:19:45.359Z,81.09
2022-08-25T08:29:52.667Z,81.62
2022-08-25T08:40:03.444Z,81.69
2022-08-25T08:50:23.939Z,81.58
2022-08-25T09:00:52.077Z,79.71
2022-08-25T09:10:59.863Z,79.76
2022-08-25T09:21:07.166Z,78.96
2022-08-25T09:31:13.617Z,79.27
2022-08-25T09:41:36.580Z,78.30
2022-08-25T09:51:45.104Z,78.33
2022-08-25T10:01:52.331Z,76.22
2022-08-25T10:12:02.086Z,75.38
2022-08-25T10:22:11.190Z,75.73
2022-08-25T10:32:16.037Z,74.85
2022-08-25T10:42:35.094Z,74.08
2022-08-25T10:52:51.470Z,73.62
2022-08-25T11:03:06.639Z,73.15
2022-08-25T11:13:12.792Z,70.98
2022-08-25T11:23:25.354Z,70.45
2022-08-25T11:33:33.822Z,70.11
2022-08-25T11:43:54.157Z,68.95
2022-08-25T11:54:08.786Z,68.66
2022-08-25T12:04:14.938Z,66.86
2022-08-25T12:14:38.275Z,65.86
2022-08-25T12:24:56.694Z,66.74
2022-08-25T12:35:16.191Z,65.04
2022-08-25T12:45:42.036Z,63.25
2022-08-25T12:55:47.937Z,62.48
2022-08-25T13:06:16.918Z,61.54
2022-08-25T13:16:29.382Z,60.55
2022-08-25T13:26:48.343Z,59.12
2022-08-25T13:37:16.360Z,59.22
2022-08-25T13:47:45.360Z,59.39
2022-08-25T13:57:54.816Z,58.71
2022-08-25T14:08:16.348Z,58.16
2022-08-25T14:18:33.413Z,57.98
2022-08-25T14:28:41.126Z,58.71
2022-08-25T14:38:54.855Z,59.21
2022-08-25T14:49:05.117Z,59.21
2022-08-25T14:59:12.547Z,59.21
2022-08-25T15:09:21.324Z,59.45
2022-08-25T15:19:30.444Z,59.38
2022-08-25T15:29:38.471Z,58.01
2022-08-25T15:39:47.439Z,58.20
2022-08-25T15:50:06.789Z,57.20
2022-08-25T16:00:16.937Z,57.13
2022-08-25T16:10:25.085Z,57.02
2022-08-25T16:20:34.744Z,57.24
2022-08-25T16:30:45.686Z,57.67
2022-08-25T16:41:00.803Z,58.02
2022-08-25T16:51:10.150Z,58.71
2022-08-25T17:01:17.664Z,60.01
2022-08-25T17:11:28.213Z,60.60
2022-08-25T17:21:38.701Z,61.56
2022-08-25T17:31:52.855Z,62.31
2022-08-25T17:42:00.123Z,63.28
2022-08-25T17:52:09.380Z,63.83
2022-08-25T18:02:16.874Z,64.93
2022-08-25T18:12:27.394Z,66.22
2022-08-25T18:22:37.148Z,67.28
2022-08-25T18:32:44.283Z,67.70
2022-08-25T18:42:51.925Z,68.66
2022-08-25T18:53:00.740Z,68.90
2022-08-25T19:03:07.028Z,69.35
2022-08-25T19:13:16.961Z,69.78
2022-08-25T19:23:30.122Z,70.15
2022-08-25T19:33:44.613Z,70.80
2022-08-25T19:43:56.296Z,71.32
2022-08-25T19:54:05.995Z,71.66
2022-08-25T20:04:14.280Z,72.46
2022-08-25T20:14:22.286Z,73.20
2022-08-25T20:24:45.800Z,73.12
2022-08-25T20:34:53.911Z,73.91
2022-08-25T20:45:04.300Z,74.28
2022-08-25T20:55:09.028Z,74.52
2022-08-25T21:05:16.489Z,74.97
2022-08-25T21:15:24.319Z,75.80
2022-08-25T21:25:31.407Z,75.81
2022-08-25T21:35:40.339Z,76.23
2022-08-25T21:45:47.735Z,76.25
2022-08-25T21:55:55.009Z,76.54
2022-08-25T22:06:02.701Z,76.73
2022-08-25T22:16:12.028Z,76.66
2022-08-25T22:26:22.091Z,77.21
2022-08-25T22:36:32.418Z,77.26
2022-08-25T22:46:39.840Z,77.28
2022-08-25T22:56:46.648Z,77.55
2022-08-25T23:06:54.044Z,77.88
2022-08-25T23:17:01.774Z,78.14
2022-08-25T23:27:17.944Z,78.06
2022-08-25T23:37:25.410Z,78.38
2022-08-25T23:47:33.744Z,78.54
2022-08-25T23:57:41.278Z,78.62
